Time;durP1;ratioP1;P1;durP2;ratioP2;P2;SDS_P1;SDS_P2;PMS_P1;PMS_P2;Temp;Humidity;BMP_temperature;BMP_pressure;BME280_temperature;BME280_humidity;BME280_pressure;Samples;Min_cycle;Max_cycle;Signal;HPM_P1;HPM_P2
2023/07/17 00:00:12;;;;;;;9.27;4.03;;;;;;;;;;4972968;28;20027;-71
2023/07/17 00:02:38;;;;;;;4.13;2.72;;;;;;;;;;4972883;28;20143;-71
2023/07/17 00:05:04;;;;;;;6.60;3.00;;;;;;;;;;4967012;28;20027;-71
2023/07/17 00:07:30;;;;;;;7.63;3.25;;;;;;;;;;4972822;28;20094;-71
2023/07/17 00:09:56;;;;;;;8.18;3.45;;;;;;;;;;4972993;28;20049;-71
2023/07/17 00:12:22;;;;;;;5.68;3.72;;;;;;;;;;4965809;28;20058;-71
2023/07/17 00:14:48;;;;;;;6.88;3.40;;;;;;;;;;4970156;28;20119;-70
2023/07/17 00:17:15;;;;;;;10.00;3.83;;;;;;;;;;4972620;28;20033;-71
2023/07/17 00:19:41;;;;;;;4.55;3.28;;;;;;;;;;4966760;28;20158;-71
2023/07/17 00:22:07;;;;;;;6.40;3.72;;;;;;;;;;4972667;28;20105;-71
2023/07/17 00:24:34;;;;;;;6.55;3.97;;;;;;;;;;4972232;28;20495;-71
2023/07/17 00:27:01;;;;;;;6.35;3.40;;;;;;;;;;4972447;28;20117;-70
2023/07/17 00:29:28;;;;;;;8.70;3.92;;;;;;;;;;4972631;28;20015;-71
2023/07/17 00:31:55;;;;;;;4.90;3.30;;;;;;;;;;4972731;28;20022;-71
2023/07/17 00:34:21;;;;;;;6.88;3.60;;;;;;;;;;4972642;28;20022;-72
2023/07/17 00:36:47;;;;;;;8.82;3.70;;;;;;;;;;4972476;28;20018;-72
2023/07/17 00:39:20;;;;;;;7.20;4.07;;;;;;;;;;4972565;28;20035;-73
2023/07/17 00:41:46;;;;;;;7.65;3.97;;;;;;;;;;4972502;28;20058;-72
2023/07/17 00:44:12;;;;;;;7.07;4.03;;;;;;;;;;4972353;28;20031;-72
2023/07/17 00:46:38;;;;;;;8.43;3.80;;;;;;;;;;4972301;28;20086;-70
2023/07/17 00:49:05;;;;;;;5.53;3.28;;;;;;;;;;4966647;28;20077;-70
2023/07/17 00:51:32;;;;;;;6.28;3.92;;;;;;;;;;4971868;28;20030;-70
2023/07/17 00:53:58;;;;;;;8.82;3.65;;;;;;;;;;4964654;28;20069;-72
2023/07/17 00:56:25;;;;;;;6.47;3.88;;;;;;;;;;4972064;28;20067;-70
2023/07/17 00:58:52;;;;;;;7.13;4.10;;;;;;;;;;4972279;28;20026;-70
2023/07/17 01:01:18;;;;;;;9.20;3.63;;;;;;;;;;4972302;28;20454;-71
2023/07/17 01:03:44;;;;;;;7.95;3.55;;;;;;;;;;4967288;28;20035;-71
2023/07/17 01:06:10;;;;;;;9.80;4.18;;;;;;;;;;4958967;28;20034;-71
2023/07/17 01:08:36;;;;;;;5.63;3.53;;;;;;;;;;4969404;28;20027;-70
2023/07/17 01:11:02;;;;;;;6.05;3.45;;;;;;;;;;4972239;28;20507;-71
2023/07/17 01:13:28;;;;;;;6.10;3.33;;;;;;;;;;4969763;28;20027;-70
2023/07/17 01:15:54;;;;;;;7.30;3.38;;;;;;;;;;4972214;28;20483;-71
2023/07/17 01:18:20;;;;;;;5.22;3.70;;;;;;;;;;4971859;28;20105;-71
2023/07/17 01:20:47;;;;;;;5.30;3.50;;;;;;;;;;4972087;28;20027;-71
2023/07/17 01:23:13;;;;;;;8.35;3.20;;;;;;;;;;4972097;28;20027;-71
2023/07/17 01:25:39;;;;;;;5.38;3.35;;;;;;;;;;4971958;28;20035;-71
2023/07/17 01:28:05;;;;;;;6.75;4.10;;;;;;;;;;4971920;28;20030;-70
2023/07/17 01:30:31;;;;;;;8.43;3.78;;;;;;;;;;4972144;28;20019;-70
2023/07/17 01:32:57;;;;;;;9.82;3.60;;;;;;;;;;4971982;28;20019;-70
2023/07/17 01:35:23;;;;;;;25.25;14.57;;;;;;;;;;4972034;28;20042;-70
2023/07/17 01:37:49;;;;;;;12.73;7.60;;;;;;;;;;4974152;28;20077;-71
2023/07/17 01:40:16;;;;;;;21.85;10.80;;;;;;;;;;4961639;28;20041;-70
2023/07/17 01:42:42;;;;;;;6.80;4.20;;;;;;;;;;4973652;28;20069;-70
2023/07/17 01:45:08;;;;;;;7.28;4.18;;;;;;;;;;4970655;28;20442;-71
2023/07/17 01:47:34;;;;;;;7.40;4.05;;;;;;;;;;4964238;28;20498;-70
2023/07/17 01:50:02;;;;;;;6.50;3.70;;;;;;;;;;4970668;28;20545;-70
2023/07/17 01:52:28;;;;;;;7.25;3.63;;;;;;;;;;4975381;28;20094;-71
2023/07/17 01:54:54;;;;;;;5.88;3.50;;;;;;;;;;4973965;28;20061;-71
2023/07/17 01:57:20;;;;;;;7.53;4.50;;;;;;;;;;4973823;28;20510;-71
2023/07/17 01:59:46;;;;;;;7.53;4.10;;;;;;;;;;4975175;28;20103;-71
2023/07/17 02:02:12;;;;;;;10.25;3.28;;;;;;;;;;4975251;28;20098;-71
2023/07/17 02:04:38;;;;;;;6.80;3.60;;;;;;;;;;4970533;28;20431;-71
2023/07/17 02:07:04;;;;;;;7.50;3.85;;;;;;;;;;4975493;28;20486;-71
2023/07/17 02:09:30;;;;;;;7.75;3.80;;;;;;;;;;4968504;28;20347;-71
2023/07/17 02:11:56;;;;;;;5.82;3.15;;;;;;;;;;4960166;28;20019;-72
2023/07/17 02:14:22;;;;;;;6.25;3.67;;;;;;;;;;4973432;28;20030;-71
2023/07/17 02:16:48;;;;;;;4.88;3.80;;;;;;;;;;4973431;28;20550;-71
2023/07/17 02:19:15;;;;;;;5.55;3.67;;;;;;;;;;4974953;28;20030;-71
2023/07/17 02:21:41;;;;;;;8.32;3.58;;;;;;;;;;4974867;28;20157;-71
2023/07/17 02:24:08;;;;;;;6.68;3.35;;;;;;;;;;4974742;28;20058;-70
2023/07/17 02:26:33;;;;;;;7.07;3.85;;;;;;;;;;4974379;28;20030;-70
2023/07/17 02:28:59;;;;;;;6.40;3.88;;;;;;;;;;4974770;28;20252;-70
2023/07/17 02:31:25;;;;;;;10.05;3.90;;;;;;;;;;4960095;28;20399;-71
2023/07/17 02:33:52;;;;;;;6.10;3.47;;;;;;;;;;4974093;28;20034;-70
2023/07/17 02:36:18;;;;;;;6.13;3.20;;;;;;;;;;4974840;28;20082;-71
2023/07/17 02:38:44;;;;;;;5.80;4.18;;;;;;;;;;4975259;28;20102;-71
2023/07/17 02:41:10;;;;;;;7.35;3.30;;;;;;;;;;4975858;28;20026;-71
2023/07/17 02:43:36;;;;;;;7.15;3.78;;;;;;;;;;4974821;28;20081;-71
2023/07/17 02:46:02;;;;;;;7.53;3.88;;;;;;;;;;4975344;28;20027;-71
2023/07/17 02:48:28;;;;;;;5.88;3.78;;;;;;;;;;4976501;28;20033;-71
2023/07/17 02:50:55;;;;;;;6.82;3.65;;;;;;;;;;4965791;28;20523;-71
2023/07/17 02:53:21;;;;;;;5.70;3.38;;;;;;;;;;4969864;28;20029;-71
2023/07/17 02:55:47;;;;;;;5.47;3.53;;;;;;;;;;4974301;28;20391;-70
2023/07/17 02:58:19;;;;;;;8.32;4.10;;;;;;;;;;4972299;28;20034;-71
2023/07/17 03:00:45;;;;;;;7.35;3.63;;;;;;;;;;4959832;28;20558;-71
2023/07/17 03:03:11;;;;;;;9.18;3.58;;;;;;;;;;4972755;28;20030;-71
2023/07/17 03:05:37;;;;;;;11.05;4.13;;;;;;;;;;4973349;28;20027;-71
2023/07/17 03:08:03;;;;;;;4.75;3.72;;;;;;;;;;4968345;28;20360;-72
2023/07/17 03:10:30;;;;;;;7.88;3.67;;;;;;;;;;4974865;28;20026;-70
2023/07/17 03:12:56;;;;;;;7.88;4.03;;;;;;;;;;4972412;28;20592;-71
2023/07/17 03:15:23;;;;;;;8.75;3.90;;;;;;;;;;4970647;28;20027;-70
2023/07/17 03:17:49;;;;;;;4.32;3.38;;;;;;;;;;4953961;28;20102;-70
2023/07/17 03:20:15;;;;;;;10.98;4.55;;;;;;;;;;4965043;28;20505;-70
2023/07/17 03:22:41;;;;;;;10.43;4.22;;;;;;;;;;4970256;28;20515;-70
2023/07/17 03:25:07;;;;;;;37.78;24.75;;;;;;;;;;4970525;28;20034;-70
2023/07/17 03:27:33;;;;;;;74.32;47.05;;;;;;;;;;4972544;28;20074;-70
2023/07/17 03:30:00;;;;;;;11.40;6.10;;;;;;;;;;4962861;28;20027;-70
2023/07/17 03:32:25;;;;;;;5.65;3.72;;;;;;;;;;4965870;28;20103;-69
2023/07/17 03:34:51;;;;;;;7.53;3.67;;;;;;;;;;4970496;28;20106;-70
2023/07/17 03:37:17;;;;;;;6.53;3.75;;;;;;;;;;4961562;28;20038;-70
2023/07/17 03:39:43;;;;;;;5.90;3.58;;;;;;;;;;4973068;28;20040;-71
2023/07/17 03:42:14;;;;;;;6.97;3.70;;;;;;;;;;4973376;28;20394;-70
2023/07/17 03:44:40;;;;;;;4.40;3.78;;;;;;;;;;4968086;28;20065;-72
2023/07/17 03:47:06;;;;;;;6.78;3.33;;;;;;;;;;4961946;28;20538;-71
2023/07/17 03:49:33;;;;;;;5.75;3.85;;;;;;;;;;4970154;28;20041;-71
2023/07/17 03:51:59;;;;;;;5.93;3.50;;;;;;;;;;4973411;28;20156;-72
2023/07/17 03:54:25;;;;;;;6.63;3.58;;;;;;;;;;4973299;28;20019;-72
2023/07/17 03:56:51;;;;;;;5.13;3.28;;;;;;;;;;4972879;28;20023;-72
2023/07/17 03:59:22;;;;;;;7.32;3.40;;;;;;;;;;4972378;28;20538;-72
2023/07/17 04:01:48;;;;;;;7.50;3.60;;;;;;;;;;4962949;28;20059;-71
2023/07/17 04:04:14;;;;;;;6.20;3.90;;;;;;;;;;4963444;28;20081;-71
2023/07/17 04:06:40;;;;;;;9.13;3.50;;;;;;;;;;4972602;28;20041;-72
2023/07/17 04:09:06;;;;;;;6.60;3.13;;;;;;;;;;4973071;28;20015;-72
2023/07/17 04:11:32;;;;;;;7.32;3.20;;;;;;;;;;4972828;28;20025;-72
2023/07/17 04:13:58;;;;;;;7.35;3.33;;;;;;;;;;4969805;28;20034;-72
2023/07/17 04:16:27;;;;;;;7.15;3.38;;;;;;;;;;4972699;28;20026;-72
2023/07/17 04:18:53;;;;;;;6.78;3.40;;;;;;;;;;4972562;28;20019;-70
2023/07/17 04:21:20;;;;;;;6.88;3.60;;;;;;;;;;4957151;28;20058;-72
2023/07/17 04:23:50;;;;;;;5.63;3.05;;;;;;;;;;4971203;28;20089;-70
2023/07/17 04:26:17;;;;;;;11.48;3.25;;;;;;;;;;4972752;28;20026;-70
2023/07/17 04:28:43;;;;;;;7.05;3.78;;;;;;;;;;4972599;28;20081;-70
2023/07/17 04:31:09;;;;;;;4.55;3.30;;;;;;;;;;4970986;28;20023;-70
2023/07/17 04:33:34;;;;;;;4.15;3.13;;;;;;;;;;4970515;28;20027;-70
2023/07/17 04:36:01;;;;;;;4.60;2.88;;;;;;;;;;4972678;28;20524;-70
2023/07/17 04:38:27;;;;;;;5.63;3.03;;;;;;;;;;4972436;28;20034;-71
2023/07/17 04:40:53;;;;;;;7.30;3.38;;;;;;;;;;4972260;28;20074;-70
2023/07/17 04:43:19;;;;;;;6.72;3.80;;;;;;;;;;4970830;28;20073;-70
2023/07/17 04:45:45;;;;;;;6.47;3.38;;;;;;;;;;4972118;28;20084;-72
2023/07/17 04:48:11;;;;;;;6.38;3.13;;;;;;;;;;4972396;28;20054;-70
2023/07/17 04:50:37;;;;;;;6.20;3.30;;;;;;;;;;4961300;28;20062;-72
2023/07/17 04:53:03;;;;;;;6.05;3.03;;;;;;;;;;4971015;28;20018;-72
2023/07/17 04:55:28;;;;;;;5.95;2.92;;;;;;;;;;4964428;28;20074;-71
2023/07/17 04:57:54;;;;;;;6.50;3.17;;;;;;;;;;4968430;28;20451;-72
2023/07/17 05:00:20;;;;;;;4.03;3.03;;;;;;;;;;4967270;28;20027;-72
2023/07/17 05:02:46;;;;;;;7.55;3.90;;;;;;;;;;4962239;28;20050;-70
2023/07/17 05:05:13;;;;;;;4.10;2.90;;;;;;;;;;4958211;28;20489;-71
2023/07/17 05:07:42;;;;;;;4.90;3.08;;;;;;;;;;4971292;28;20113;-71
2023/07/17 05:10:10;;;;;;;6.22;3.03;;;;;;;;;;4972864;28;20390;-71
2023/07/17 05:12:36;;;;;;;7.60;3.90;;;;;;;;;;4989822;23;20340;-75
2023/07/17 05:15:03;;;;;;;5.38;2.95;;;;;;;;;;4992322;28;20115;-75
2023/07/17 05:17:29;;;;;;;5.15;3.45;;;;;;;;;;4993168;28;20448;-75
2023/07/17 05:19:55;;;;;;;4.40;2.85;;;;;;;;;;4977800;28;20069;-76
2023/07/17 05:22:21;;;;;;;7.47;3.50;;;;;;;;;;4995419;28;20054;-75
2023/07/17 05:24:47;;;;;;;4.65;3.47;;;;;;;;;;4990628;28;20031;-75
2023/07/17 05:27:13;;;;;;;5.32;3.03;;;;;;;;;;4983774;28;20030;-75
2023/07/17 05:29:39;;;;;;;8.30;3.47;;;;;;;;;;4993375;28;20470;-75
2023/07/17 05:32:06;;;;;;;6.13;3.30;;;;;;;;;;4980141;28;20030;-75
2023/07/17 05:34:32;;;;;;;4.75;2.70;;;;;;;;;;4987322;28;20018;-76
2023/07/17 05:36:58;;;;;;;4.80;2.85;;;;;;;;;;4993592;28;20019;-76
2023/07/17 05:39:24;;;;;;;4.88;2.83;;;;;;;;;;4995087;28;20370;-75
2023/07/17 05:41:50;;;;;;;5.65;2.85;;;;;;;;;;4991647;28;20088;-75
2023/07/17 05:44:16;;;;;;;3.65;2.60;;;;;;;;;;4995139;28;20022;-76
2023/07/17 05:46:42;;;;;;;4.15;2.95;;;;;;;;;;4992054;28;20070;-75
2023/07/17 05:49:08;;;;;;;4.88;3.00;;;;;;;;;;4975544;28;20023;-75
2023/07/17 05:51:34;;;;;;;5.70;2.97;;;;;;;;;;4982424;28;20046;-75
2023/07/17 05:54:00;;;;;;;6.78;3.70;;;;;;;;;;4974126;28;20097;-75
2023/07/17 05:56:26;;;;;;;5.55;3.22;;;;;;;;;;4983383;28;20027;-75
2023/07/17 05:58:55;;;;;;;4.90;3.15;;;;;;;;;;4974223;28;20041;-75
2023/07/17 06:01:24;;;;;;;6.15;3.15;;;;;;;;;;4973640;28;20102;-75
2023/07/17 06:03:50;;;;;;;8.90;3.40;;;;;;;;;;4971955;28;20155;-74
2023/07/17 06:06:23;;;;;;;5.68;3.00;;;;;;;;;;4980503;28;20022;-75
2023/07/17 06:08:50;;;;;;;5.05;2.83;;;;;;;;;;4976949;28;20157;-75
2023/07/17 06:11:16;;;;;;;3.17;2.88;;;;;;;;;;4993710;28;20018;-75
2023/07/17 06:13:42;;;;;;;9.23;3.28;;;;;;;;;;4975164;28;20035;-75
2023/07/17 06:16:08;;;;;;;6.35;3.60;;;;;;;;;;4978240;28;20172;-74
2023/07/17 06:18:34;;;;;;;8.48;3.58;;;;;;;;;;4985684;28;20019;-75
2023/07/17 06:21:00;;;;;;;5.18;3.22;;;;;;;;;;4983029;28;20050;-75
2023/07/17 06:23:26;;;;;;;6.82;3.50;;;;;;;;;;4979939;28;20508;-75
2023/07/17 06:25:52;;;;;;;6.82;3.63;;;;;;;;;;4991393;28;20035;-75
2023/07/17 06:28:18;;;;;;;7.38;3.78;;;;;;;;;;4973228;28;20023;-75
2023/07/17 06:30:48;;;;;;;7.43;3.88;;;;;;;;;;4974781;28;20398;-75
2023/07/17 06:33:14;;;;;;;5.22;3.67;;;;;;;;;;4962194;23;20036;-75
2023/07/17 06:35:40;;;;;;;4.10;3.50;;;;;;;;;;4936419;29;20680;-74
2023/07/17 06:38:07;;;;;;;6.55;3.83;;;;;;;;;;4935055;29;20048;-75
2023/07/17 06:40:34;;;;;;;4.88;3.35;;;;;;;;;;4936373;29;20495;-73
2023/07/17 06:43:01;;;;;;;4.80;3.35;;;;;;;;;;4935012;29;20030;-74
2023/07/17 06:45:27;;;;;;;6.85;3.88;;;;;;;;;;4927401;29;20046;-74
2023/07/17 06:47:53;;;;;;;4.85;3.78;;;;;;;;;;4917579;29;20036;-74
2023/07/17 06:50:19;;;;;;;5.55;3.85;;;;;;;;;;4927694;29;20743;-75
2023/07/17 06:52:45;;;;;;;6.88;3.53;;;;;;;;;;4932711;29;20106;-75
2023/07/17 06:55:11;;;;;;;10.18;3.75;;;;;;;;;;4929374;29;20075;-75
2023/07/17 06:57:37;;;;;;;6.82;3.90;;;;;;;;;;4929703;29;20028;-75
2023/07/17 07:00:05;;;;;;;6.30;3.60;;;;;;;;;;4913568;29;20028;-75
2023/07/17 07:02:31;;;;;;;6.88;3.45;;;;;;;;;;4912731;29;20291;-75
2023/07/17 07:04:58;;;;;;;5.85;3.20;;;;;;;;;;4915659;29;20515;-75
2023/07/17 07:07:24;;;;;;;11.40;4.13;;;;;;;;;;4925300;29;20028;-74
2023/07/17 07:09:52;;;;;;;6.28;3.45;;;;;;;;;;4916991;29;20039;-74
2023/07/17 07:12:18;;;;;;;4.25;3.10;;;;;;;;;;4925621;29;20048;-74
2023/07/17 07:14:44;;;;;;;4.65;3.53;;;;;;;;;;4926411;29;20028;-77
2023/07/17 07:17:10;;;;;;;8.65;3.78;;;;;;;;;;4915831;29;20098;-79
2023/07/17 07:19:36;;;;;;;5.90;3.90;;;;;;;;;;4916958;29;20032;-80
2023/07/17 07:22:02;;;;;;;6.95;3.88;;;;;;;;;;4922581;29;20619;-80
2023/07/17 07:24:52;;;;;;;6.68;3.53;;;;;;;;;;4921213;29;20031;-80
2023/07/17 07:27:47;;;;;;;7.45;3.97;;;;;;;;;;4862403;29;20030;-79
2023/07/17 07:30:13;;;;;;;4.82;3.88;;;;;;;;;;4905659;29;20036;-77
2023/07/17 07:32:41;;;;;;;5.43;3.88;;;;;;;;;;4915182;29;20036;-77
2023/07/17 07:35:07;;;;;;;11.98;3.97;;;;;;;;;;4915295;29;20038;-78
2023/07/17 07:37:50;;;;;;;4.57;3.47;;;;;;;;;;4910798;29;20500;-77
2023/07/17 07:40:37;;;;;;;5.00;4.00;;;;;;;;;;4911104;29;20095;-78
2023/07/17 07:43:05;;;;;;;7.97;4.55;;;;;;;;;;4919243;29;20043;-81
2023/07/17 07:45:37;;;;;;;6.90;4.18;;;;;;;;;;4923941;29;20032;-81
2023/07/17 07:48:06;;;;;;;7.15;3.97;;;;;;;;;;4920204;29;20028;-81
2023/07/17 07:50:32;;;;;;;4.40;3.78;;;;;;;;;;4921846;29;20044;-81
2023/07/17 07:52:58;;;;;;;6.88;4.15;;;;;;;;;;4921151;29;20016;-81
2023/07/17 07:55:24;;;;;;;7.45;3.97;;;;;;;;;;4919340;29;20032;-81
2023/07/17 07:57:51;;;;;;;5.07;3.92;;;;;;;;;;4920726;29;20087;-81
2023/07/17 08:00:20;;;;;;;6.45;4.38;;;;;;;;;;4919813;29;20036;-81
2023/07/17 08:02:50;;;;;;;5.53;3.53;;;;;;;;;;4920884;29;20020;-81
2023/07/17 08:05:16;;;;;;;9.57;4.13;;;;;;;;;;4916558;29;20024;-81
2023/07/17 08:07:42;;;;;;;8.50;4.13;;;;;;;;;;4919345;29;20816;-81
2023/07/17 08:10:37;;;;;;;5.43;3.60;;;;;;;;;;4917061;29;20091;-81
2023/07/17 08:13:09;;;;;;;6.18;3.90;;;;;;;;;;4914035;29;20085;-81
2023/07/17 08:15:35;;;;;;;5.57;3.97;;;;;;;;;;4917182;29;20432;-81
2023/07/17 08:18:07;;;;;;;9.05;4.07;;;;;;;;;;4921826;29;20070;-81
2023/07/17 08:20:36;;;;;;;7.25;3.63;;;;;;;;;;4921132;29;20040;-80
2023/07/17 08:23:04;;;;;;;7.47;4.03;;;;;;;;;;4924395;29;20559;-81
2023/07/17 08:25:38;;;;;;;8.30;4.05;;;;;;;;;;4926477;29;20024;-81
2023/07/17 08:28:07;;;;;;;8.07;4.30;;;;;;;;;;4929346;29;20028;-81
2023/07/17 08:30:35;;;;;;;5.25;4.10;;;;;;;;;;4928691;29;20123;-81
2023/07/17 08:33:26;;;;;;;6.20;3.85;;;;;;;;;;4931535;29;20039;-81
2023/07/17 08:35:55;;;;;;;5.90;3.85;;;;;;;;;;4930080;29;20064;-82
2023/07/17 08:38:21;;;;;;;8.95;3.70;;;;;;;;;;4931070;29;20047;-81
2023/07/17 08:40:55;;;;;;;5.47;3.88;;;;;;;;;;4926703;29;20043;-80
2023/07/17 08:43:22;;;;;;;9.25;4.40;;;;;;;;;;4925238;29;20033;-81
2023/07/17 08:45:49;;;;;;;6.35;4.10;;;;;;;;;;4925908;29;20036;-81
2023/07/17 08:48:16;;;;;;;7.43;3.80;;;;;;;;;;4928991;29;20020;-80
2023/07/17 08:50:42;;;;;;;9.13;4.35;;;;;;;;;;4932751;29;20081;-80
2023/07/17 08:53:08;;;;;;;7.47;3.90;;;;;;;;;;4932472;29;20024;-81
2023/07/17 08:55:36;;;;;;;8.10;4.18;;;;;;;;;;4934920;29;20038;-82
2023/07/17 08:58:29;;;;;;;5.00;3.70;;;;;;;;;;4933365;29;20043;-81
2023/07/17 09:00:58;;;;;;;4.97;3.92;;;;;;;;;;4932897;29;20032;-81
2023/07/17 09:03:24;;;;;;;7.60;4.30;;;;;;;;;;4937196;29;20092;-81
2023/07/17 09:05:50;;;;;;;5.60;3.97;;;;;;;;;;4937637;29;20100;-81
2023/07/17 09:08:24;;;;;;;8.50;4.55;;;;;;;;;;4936344;29;20028;-81
2023/07/17 09:11:07;;;;;;;10.05;4.40;;;;;;;;;;4937058;29;20088;-81
2023/07/17 09:13:39;;;;;;;12.32;4.28;;;;;;;;;;4934960;29;20024;-81
2023/07/17 09:16:31;;;;;;;10.50;4.03;;;;;;;;;;4934704;29;20029;-81
2023/07/17 09:18:57;;;;;;;8.95;4.38;;;;;;;;;;4934299;29;20032;-81
2023/07/17 09:21:24;;;;;;;7.35;4.40;;;;;;;;;;4926327;29;20037;-81
2023/07/17 09:23:55;;;;;;;6.57;4.00;;;;;;;;;;4923674;29;20028;-81
2023/07/17 09:26:30;;;;;;;8.15;4.07;;;;;;;;;;4925373;29;20032;-84
2023/07/17 09:28:57;;;;;;;9.50;4.10;;;;;;;;;;4923271;29;20115;-83
2023/07/17 09:31:27;;;;;;;7.05;4.25;;;;;;;;;;4923377;29;20083;-82
2023/07/17 09:33:56;;;;;;;6.93;3.42;;;;;;;;;;4923745;29;20103;-82
2023/07/17 09:36:23;;;;;;;4.73;3.33;;;;;;;;;;4911953;29;20040;-82
2023/07/17 09:38:56;;;;;;;5.18;3.97;;;;;;;;;;4919999;29;20036;-81
2023/07/17 09:41:26;;;;;;;6.80;3.60;;;;;;;;;;4920728;29;20169;-82
2023/07/17 09:43:58;;;;;;;6.60;3.63;;;;;;;;;;4919913;29;20088;-81
2023/07/17 09:46:29;;;;;;;9.30;4.30;;;;;;;;;;4917870;29;20064;-81
2023/07/17 09:48:56;;;;;;;5.78;3.75;;;;;;;;;;4903500;29;20473;-82
2023/07/17 09:51:25;;;;;;;6.15;3.50;;;;;;;;;;4914404;29;20085;-81
2023/07/17 09:53:51;;;;;;;4.18;3.70;;;;;;;;;;4900878;29;20025;-81
2023/07/17 09:56:21;;;;;;;6.90;4.35;;;;;;;;;;4911615;29;20021;-81
2023/07/17 09:58:48;;;;;;;9.90;3.60;;;;;;;;;;4935064;29;20115;-81
2023/07/17 10:01:18;;;;;;;7.38;3.85;;;;;;;;;;4931376;29;20539;-82
2023/07/17 10:03:45;;;;;;;7.78;3.90;;;;;;;;;;4930975;29;20404;-81
2023/07/17 10:06:12;;;;;;;4.07;3.00;;;;;;;;;;4931010;29;20028;-81
2023/07/17 10:08:38;;;;;;;9.27;3.53;;;;;;;;;;4916672;29;20053;-81
2023/07/17 10:11:04;;;;;;;4.65;3.20;;;;;;;;;;4913049;29;20031;-81
2023/07/17 10:13:30;;;;;;;7.45;3.80;;;;;;;;;;4927719;29;20039;-81
2023/07/17 10:15:57;;;;;;;8.20;3.60;;;;;;;;;;4912519;29;20024;-81
2023/07/17 10:18:24;;;;;;;9.40;3.92;;;;;;;;;;4912388;29;20052;-81
2023/07/17 10:20:54;;;;;;;7.20;3.95;;;;;;;;;;4911763;29;20025;-82
2023/07/17 10:23:24;;;;;;;8.95;4.57;;;;;;;;;;4908322;29;20034;-82
2023/07/17 10:25:50;;;;;;;5.28;3.13;;;;;;;;;;4925597;29;20063;-82
2023/07/17 10:28:29;;;;;;;7.63;4.50;;;;;;;;;;4938031;29;20102;-82
2023/07/17 10:31:02;;;;;;;8.85;3.95;;;;;;;;;;4950449;29;20075;-82
2023/07/17 10:33:35;;;;;;;6.43;3.58;;;33.70;25.20;;;;;;4949725;29;20023;-81
2023/07/17 10:36:01;;;;;;;5.85;3.58;;;33.40;26.10;;;;;;4947861;29;20083;-79
2023/07/17 10:38:34;;;;;;;4.93;3.65;;;33.40;26.10;;;;;;4946122;29;20028;-80
2023/07/17 10:41:04;;;;;;;6.50;3.55;;;32.80;26.20;;;;;;4945258;29;20020;-79
2023/07/17 10:43:30;;;;;;;7.40;4.13;;;32.50;26.70;;;;;;4925638;29;20072;-80
2023/07/17 10:45:59;;;;;;;7.38;4.40;;;32.60;28.10;;;;;;4930429;29;20059;-80
2023/07/17 10:48:33;;;;;;;5.85;3.47;;;32.30;28.40;;;;;;4931479;29;20028;-80
2023/07/17 10:50:59;;;;;;;6.22;3.58;;;32.20;27.20;;;;;;4934744;29;20043;-81
2023/07/17 10:53:25;;;;;;;6.85;3.85;;;31.70;28.60;;;;;;4933531;29;20024;-80
2023/07/17 10:55:51;;;;;;;6.15;3.38;;;32.00;28.70;;;;;;4929758;29;20088;-80
2023/07/17 10:58:20;;;;;;;6.45;3.85;;;32.00;28.80;;;;;;4930557;29;20020;-80
2023/07/17 11:00:47;;;;;;;9.65;4.13;;;31.90;28.60;;;;;;4930903;29;20028;-80
2023/07/17 11:03:15;;;;;;;8.55;3.92;;;31.70;29.80;;;;;;4926532;29;20044;-81
2023/07/17 11:05:42;;;;;;;7.90;3.80;;;31.80;29.60;;;;;;4928269;29;20480;-80
2023/07/17 11:08:08;;;;;;;9.55;4.05;;;;;;;;;;4928440;29;20039;-80
2023/07/17 11:10:39;;;;;;;7.90;4.32;;;;;;;;;;4926078;29;20032;-80
2023/07/17 11:13:05;;;;;;;9.70;4.15;;;;;;;;;;4928716;29;20040;-80
2023/07/17 11:15:32;;;;;;;7.35;3.75;;;;;;;;;;4929645;29;20032;-80
2023/07/17 11:18:02;;;;;;;18.30;4.53;;;;;;;;;;4928461;29;20024;-80
2023/07/17 11:20:28;;;;;;;8.85;3.92;;;;;;;;;;4931413;29;20051;-80
2023/07/17 11:22:54;;;;;;;8.23;3.70;;;;;;;;;;4931350;29;20028;-80
2023/07/17 11:25:20;;;;;;;6.47;4.10;;;;;;;;;;4925320;29;20385;-80
2023/07/17 11:27:46;;;;;;;6.97;3.63;;;;;;;;;;4925483;29;20036;-80
2023/07/17 11:30:19;;;;;;;9.95;4.20;;;;;;;;;;4929210;29;20025;-81
2023/07/17 11:32:51;;;;;;;6.45;3.45;;;;;;;;;;4927875;29;20345;-80
2023/07/17 11:35:18;;;;;;;8.32;4.10;;;;;;;;;;4929635;29;20035;-80
2023/07/17 11:37:45;;;;;;;7.57;4.60;;;;;;;;;;4927837;29;20356;-80
2023/07/17 11:40:11;;;;;;;8.25;3.90;;;;;;;;;;4927050;29;20024;-80
2023/07/17 11:42:53;;;;;;;5.93;3.75;;;;;;;;;;4920201;29;20068;-80
2023/07/17 11:45:26;;;;;;;9.15;4.03;;;;;;;;;;4941393;29;20036;-80
2023/07/17 11:47:56;;;;;;;7.90;3.90;;;;;;;;;;4924240;29;20120;-76
2023/07/17 11:50:26;;;;;;;6.50;4.00;;;;;;;;;;4920580;29;20107;-76
2023/07/17 11:53:09;;;;;;;8.15;4.22;;;;;;;;;;4908269;29;20477;-77
2023/07/17 11:55:35;;;;;;;7.28;3.83;;;;;;;;;;4907959;29;20053;-77
2023/07/17 11:58:02;;;;;;;9.65;3.78;;;;;;;;;;4915884;29;20067;-77
2023/07/17 12:00:28;;;;;;;6.97;3.60;;;;;;;;;;4896428;29;20035;-77
2023/07/17 12:02:55;;;;;;;10.18;3.70;;;;;;;;;;4896973;29;20029;-77
2023/07/17 12:05:21;;;;;;;10.02;4.28;;;;;;;;;;4896117;29;20060;-77
2023/07/17 12:07:49;;;;;;;10.23;4.30;;;;;;;;;;4896880;29;20063;-77
2023/07/17 12:10:15;;;;;;;9.77;3.78;;;;;;;;;;4893830;29;20025;-77
2023/07/17 12:12:41;;;;;;;8.55;4.10;;;;;;;;;;4895210;29;20021;-77
2023/07/17 12:15:07;;;;;;;9.77;4.00;;;;;;;;;;4908081;29;20028;-77
2023/07/17 12:17:33;;;;;;;10.23;4.38;;;;;;;;;;4913764;29;20127;-77
2023/07/17 12:19:59;;;;;;;5.43;3.83;;;;;;;;;;4914880;29;20103;-77
2023/07/17 12:22:25;;;;;;;5.38;3.97;;;;;;;;;;4915290;29;20111;-77
2023/07/17 12:24:52;;;;;;;8.90;3.65;;;;;;;;;;4915477;29;20070;-77
2023/07/17 12:27:18;;;;;;;8.32;4.10;;;;;;;;;;4915288;29;20408;-77
2023/07/17 12:29:44;;;;;;;9.07;4.40;;;;;;;;;;4915692;29;20047;-77
2023/07/17 12:32:10;;;;;;;8.25;3.80;;;;;;;;;;4915662;29;20443;-78
2023/07/17 12:34:36;;;;;;;7.22;4.25;;;;;;;;;;4914211;29;20416;-78
2023/07/17 12:37:02;;;;;;;7.22;3.90;;;;;;;;;;4915324;29;20411;-78
2023/07/17 12:39:28;;;;;;;10.20;3.95;;;;;;;;;;4915066;29;20499;-77
2023/07/17 12:41:54;;;;;;;6.75;3.60;;;;;;;;;;4914480;29;20539;-77
2023/07/17 12:44:20;;;;;;;7.90;3.50;;;;;;;;;;4914339;29;20039;-78
2023/07/17 12:46:46;;;;;;;7.38;4.28;;;;;;;;;;4915490;29;20050;-78
2023/07/17 12:49:12;;;;;;;10.75;3.88;;;;;;;;;;4914212;29;20074;-78
2023/07/17 12:51:38;;;;;;;10.88;4.60;;;;;;;;;;4914715;29;20028;-78
2023/07/17 12:54:05;;;;;;;7.15;3.92;;;;;;;;;;4915890;29;20054;-78
2023/07/17 12:56:31;;;;;;;7.07;4.20;;;;;;;;;;4915652;29;20052;-77
2023/07/17 12:58:57;;;;;;;8.68;3.78;;;;;;;;;;4915653;29;20436;-77
2023/07/17 13:01:23;;;;;;;5.93;4.07;;;;;;;;;;4909863;29;20480;-77
2023/07/17 13:03:49;;;;;;;5.07;3.50;;;;;;;;;;4896546;29;20064;-78
2023/07/17 13:06:15;;;;;;;8.23;4.40;;;;;;;;;;4931818;29;20032;-77
2023/07/17 13:08:41;;;;;;;8.88;3.95;;;;;;;;;;4934223;29;20026;-77
2023/07/17 13:11:07;;;;;;;8.02;4.07;;;;;;;;;;4935012;29;20034;-78
2023/07/17 13:13:33;;;;;;;6.32;4.28;;;;;;;;;;4935137;29;20484;-78
2023/07/17 13:15:59;;;;;;;7.93;4.40;;;;;;;;;;4937749;29;20123;-78
2023/07/17 13:18:25;;;;;;;7.60;4.13;;;;;;;;;;4934996;29;20047;-78
2023/07/17 13:20:52;;;;;;;5.88;3.97;;;;;;;;;;4933033;29;20020;-78
2023/07/17 13:23:18;;;;;;;9.45;3.92;;;;;;;;;;4934076;29;20093;-78
2023/07/17 13:25:45;;;;;;;7.78;4.10;;;;;;;;;;4934273;29;20020;-78
2023/07/17 13:28:11;;;;;;;10.65;3.83;;;;;;;;;;4934592;29;20028;-78
2023/07/17 13:30:40;;;;;;;7.25;4.00;;;;;;;;;;4934731;29;20034;-78
2023/07/17 13:33:06;;;;;;;7.68;4.38;;;;;;;;;;4937305;29;20099;-78
2023/07/17 13:35:32;;;;;;;6.65;3.92;;;;;;;;;;4938413;29;20035;-77
2023/07/17 13:37:58;;;;;;;7.15;3.65;;;;;;;;;;4936695;29;20027;-77
2023/07/17 13:40:26;;;;;;;9.50;4.38;;;;;;;;;;4940151;29;20040;-78
2023/07/17 13:42:58;;;;;;;4.47;3.55;;;;;;;;;;4937764;29;20174;-78
2023/07/17 13:45:24;;;;;;;7.13;4.07;;;;;;;;;;4939107;29;20028;-78
2023/07/17 13:47:50;;;;;;;6.75;3.63;;;;;;;;;;4938515;29;20482;-78
2023/07/17 13:50:17;;;;;;;10.18;3.83;;;;;;;;;;4939020;29;20042;-78
2023/07/17 13:52:45;;;;;;;5.20;3.60;;;;;;;;;;4939623;29;20020;-78
2023/07/17 13:55:13;;;;;;;8.65;4.00;;;;;;;;;;4942138;29;20035;-78
2023/07/17 13:57:39;;;;;;;8.82;4.10;;;;;;;;;;4940962;29;20167;-77
2023/07/17 14:00:05;;;;;;;6.03;3.42;;;;;;;;;;4938930;29;20483;-77
2023/07/17 14:02:31;;;;;;;5.50;3.20;;;;;;;;;;4937593;29;20630;-78
2023/07/17 14:04:57;;;;;;;5.60;4.13;;;;;;;;;;4937041;29;20087;-77
2023/07/17 14:07:23;;;;;;;6.80;3.97;;;;;;;;;;4935424;29;20031;-77
2023/07/17 14:09:49;;;;;;;4.50;3.42;;;;;;;;;;4936889;29;20024;-77
2023/07/17 14:12:15;;;;;;;5.28;3.67;;;;;;;;;;4937348;29;20015;-77
2023/07/17 14:14:41;;;;;;;7.20;3.72;;;;;;;;;;4937029;29;20027;-77
2023/07/17 14:17:07;;;;;;;10.95;4.40;;;;;;;;;;4935447;29;20506;-77
2023/07/17 14:19:33;;;;;;;4.82;3.53;;;;;;;;;;4937514;29;20356;-77
2023/07/17 14:21:59;;;;;;;6.85;4.03;;;;;;;;;;4937882;29;20145;-78
2023/07/17 14:24:25;;;;;;;6.07;3.58;;;;;;;;;;4935614;29;20118;-78
2023/07/17 14:26:51;;;;;;;4.75;3.65;;;;;;;;;;4936609;29;20036;-78
2023/07/17 14:29:17;;;;;;;5.53;3.40;;;;;;;;;;4939808;29;20023;-78
2023/07/17 14:31:43;;;;;;;6.43;3.40;;;;;;;;;;4937758;29;20091;-77
2023/07/17 14:34:09;;;;;;;5.05;3.25;;;;;;;;;;4936443;29;20036;-77
2023/07/17 14:36:35;;;;;;;8.00;3.97;;;;;;;;;;4936516;29;20071;-77